createdAt,value
2019-01-19T00:00:30.747Z,95324.00
2019-01-19T00:03:29.032Z,95339.00
2019-01-19T00:06:45.034Z,95329.00
2019-01-19T00:09:28.857Z,95326.00
2019-01-19T00:12:55.207Z,95336.00
2019-01-19T00:15:43.187Z,95323.00
2019-01-19T00:19:02.083Z,95320.00
2019-01-19T00:22:11.550Z,95312.00
2019-01-19T00:25:33.420Z,95315.00
2019-01-19T00:28:27.595Z,95327.00
2019-01-19T00:31:26.385Z,95303.00
2019-01-19T00:34:49.096Z,95322.00
2019-01-19T00:37:53.448Z,95329.00
2019-01-19T00:41:00.151Z,95309.00
2019-01-19T00:44:10.637Z,95311.00
2019-01-19T00:47:45.952Z,95322.00
2019-01-19T00:51:00.518Z,95317.00
2019-01-19T00:53:46.141Z,95325.00
2019-01-19T00:56:47.930Z,95302.00
2019-01-19T00:59:32.981Z,95326.00
2019-01-19T01:02:59.183Z,95304.00
2019-01-19T01:05:52.792Z,95311.00
2019-01-19T01:09:06.970Z,95295.00
2019-01-19T01:12:27.727Z,95289.00
2019-01-19T01:15:58.054Z,95292.00
2019-01-19T01:19:03.158Z,95295.00
2019-01-19T01:22:35.583Z,95280.00
2019-01-19T01:26:01.983Z,95282.00
2019-01-19T01:29:24.497Z,95288.00
2019-01-19T01:32:24.847Z,95287.00
2019-01-19T01:35:40.830Z,95283.00
2019-01-19T01:39:06.591Z,95289.00
2019-01-19T01:42:17.104Z,95283.00
2019-01-19T01:45:22.565Z,95275.00
2019-01-19T01:48:39.323Z,95286.00
2019-01-19T01:51:39.577Z,95283.00
2019-01-19T01:54:37.368Z,95275.00
2019-01-19T01:57:16.925Z,95287.00
2019-01-19T02:00:16.966Z,95282.00
2019-01-19T02:03:40.301Z,95272.00
2019-01-19T02:07:02.632Z,95264.00
2019-01-19T02:10:16.011Z,95279.00
2019-01-19T02:13:51.510Z,95281.00
2019-01-19T02:17:05.022Z,95284.00
2019-01-19T02:20:18.244Z,95268.00
2019-01-19T02:23:50.032Z,95277.00
2019-01-19T02:27:16.542Z,95279.00
2019-01-19T02:30:40.025Z,95261.00
2019-01-19T02:33:59.392Z,95273.00
2019-01-19T02:37:27.590Z,95272.00
2019-01-19T02:40:41.020Z,95269.00
2019-01-19T02:43:48.293Z,95264.00
2019-01-19T02:47:20.455Z,95275.00
2019-01-19T02:50:36.494Z,95271.00
2019-01-19T02:53:46.645Z,95258.00
2019-01-19T02:57:01.386Z,95248.00
2019-01-19T03:00:03.927Z,95248.00
2019-01-19T03:03:42.842Z,95247.00
2019-01-19T03:07:06.415Z,95254.00
2019-01-19T03:10:21.643Z,95250.00
2019-01-19T03:13:51.106Z,95257.00
2019-01-19T03:17:08.320Z,95254.00
2019-01-19T03:20:34.490Z,95253.00
2019-01-19T03:24:06.084Z,95244.00
2019-01-19T03:26:59.278Z,95247.00
2019-01-19T03:30:35.171Z,95254.00
2019-01-19T03:34:22.289Z,95256.00
2019-01-19T03:37:41.440Z,95255.00
2019-01-19T03:41:17.777Z,95253.00
2019-01-19T03:44:40.670Z,95252.00
2019-01-19T03:47:54.710Z,95232.00
2019-01-19T03:51:15.352Z,95241.00
2019-01-19T03:54:15.801Z,95240.00
2019-01-19T03:57:02.862Z,95242.00
2019-01-19T04:00:00.646Z,95238.00
2019-01-19T04:03:00.851Z,95241.00
2019-01-19T04:06:12.595Z,95243.00
2019-01-19T04:09:11.615Z,95240.00
2019-01-19T04:12:32.616Z,95252.00
2019-01-19T04:16:05.671Z,95235.00
2019-01-19T04:19:28.478Z,95231.00
2019-01-19T04:22:34.646Z,95230.00
2019-01-19T04:25:41.706Z,95219.00
2019-01-19T04:28:13.443Z,95233.00
2019-01-19T04:30:43.428Z,95222.00
2019-01-19T04:33:13.332Z,95229.00
2019-01-19T04:35:44.663Z,95235.00
2019-01-19T04:38:14.789Z,95229.00
2019-01-19T04:40:44.855Z,95228.00
2019-01-19T04:43:14.753Z,95236.00
2019-01-19T04:45:44.739Z,95231.00
2019-01-19T04:48:15.355Z,95233.00
2019-01-19T04:50:45.346Z,95232.00
2019-01-19T04:53:16.597Z,95240.00
2019-01-19T04:55:46.737Z,95235.00
2019-01-19T04:58:16.786Z,95233.00
2019-01-19T05:00:46.766Z,95230.00
2019-01-19T05:03:16.855Z,95222.00
2019-01-19T05:05:46.970Z,95231.00
2019-01-19T05:08:16.929Z,95228.00
2019-01-19T05:10:46.912Z,95234.00
2019-01-19T05:13:17.086Z,95221.00
2019-01-19T05:15:47.221Z,95220.00
2019-01-19T05:18:18.757Z,95218.00
2019-01-19T05:20:49.738Z,95235.00
2019-01-19T05:23:19.919Z,95237.00
2019-01-19T05:25:50.332Z,95232.00
2019-01-19T05:28:20.281Z,95241.00
2019-01-19T05:30:50.358Z,95212.00
2019-01-19T05:33:23.393Z,95242.00
2019-01-19T05:35:53.365Z,95246.00
2019-01-19T05:38:23.373Z,95235.00
2019-01-19T05:40:53.403Z,95241.00
2019-01-19T05:43:25.796Z,95229.00
2019-01-19T05:45:55.795Z,95225.00
2019-01-19T05:48:25.708Z,95230.00
2019-01-19T05:50:55.736Z,95251.00
2019-01-19T05:53:25.740Z,95229.00
2019-01-19T05:55:55.829Z,95223.00
2019-01-19T05:58:25.826Z,95224.00
2019-01-19T06:00:55.735Z,95236.00
2019-01-19T06:03:25.657Z,95234.00
2019-01-19T06:05:55.549Z,95237.00
2019-01-19T06:08:26.671Z,95224.00
2019-01-19T06:10:56.616Z,95226.00
2019-01-19T06:13:26.523Z,95233.00
2019-01-19T06:15:56.552Z,95232.00
2019-01-19T06:18:26.843Z,95227.00
2019-01-19T06:20:56.813Z,95234.00
2019-01-19T06:23:26.813Z,95228.00
2019-01-19T06:25:56.721Z,95231.00
2019-01-19T06:28:26.646Z,95230.00
2019-01-19T06:30:56.644Z,95229.00
2019-01-19T06:33:26.617Z,95225.00
2019-01-19T06:35:56.615Z,95230.00
2019-01-19T06:38:26.766Z,95232.00
2019-01-19T06:40:56.807Z,95233.00
2019-01-19T06:43:26.727Z,95223.00
2019-01-19T06:45:56.614Z,95228.00
2019-01-19T06:48:26.626Z,95230.00
2019-01-19T06:50:56.539Z,95229.00
2019-01-19T06:53:26.523Z,95231.00
2019-01-19T06:55:56.426Z,95229.00
2019-01-19T06:58:26.339Z,95241.00
2019-01-19T07:00:56.434Z,95243.00
2019-01-19T07:03:26.406Z,95242.00
2019-01-19T07:05:56.299Z,95235.00
2019-01-19T07:08:26.362Z,95241.00
2019-01-19T07:10:56.366Z,95235.00
2019-01-19T07:13:26.343Z,95249.00
2019-01-19T07:15:57.434Z,95241.00
2019-01-19T07:18:27.389Z,95247.00
2019-01-19T07:20:57.288Z,95235.00
2019-01-19T07:23:27.196Z,95243.00
2019-01-19T07:25:57.241Z,95248.00
2019-01-19T07:28:27.134Z,95257.00
2019-01-19T07:30:57.115Z,95243.00
2019-01-19T07:33:27.085Z,95245.00
2019-01-19T07:35:56.985Z,95251.00
2019-01-19T07:38:26.949Z,95245.00
2019-01-19T07:40:58.626Z,95234.00
2019-01-19T07:43:28.901Z,95246.00
2019-01-19T07:45:59.155Z,95246.00
2019-01-19T07:48:29.121Z,95239.00
2019-01-19T07:50:59.093Z,95251.00
2019-01-19T07:53:29.117Z,95235.00
2019-01-19T07:55:59.094Z,95247.00
2019-01-19T07:58:29.162Z,95255.00
2019-01-19T08:00:59.159Z,95260.00
2019-01-19T08:03:29.050Z,95260.00
2019-01-19T08:05:58.932Z,95264.00
2019-01-19T08:08:28.863Z,95262.00
2019-01-19T08:10:58.919Z,95265.00
2019-01-19T08:13:31.108Z,95262.00
2019-01-19T08:16:01.143Z,95260.00
2019-01-19T08:18:31.283Z,95261.00
2019-01-19T08:21:01.329Z,95263.00
2019-01-19T08:23:31.305Z,95260.00
2019-01-19T08:26:01.366Z,95263.00
2019-01-19T08:28:31.336Z,95273.00
2019-01-19T08:31:01.378Z,95256.00
2019-01-19T08:33:31.261Z,95247.00
2019-01-19T08:36:01.598Z,95257.00
2019-01-19T08:38:31.499Z,95262.00
2019-01-19T08:41:01.465Z,95247.00
2019-01-19T08:43:59.200Z,95257.00
2019-01-19T08:46:29.233Z,95246.00
2019-01-19T08:49:02.560Z,95250.00
2019-01-19T08:51:33.281Z,95267.00
2019-01-19T08:54:03.466Z,95256.00
2019-01-19T08:56:33.495Z,95260.00
2019-01-19T08:59:03.687Z,95256.00
2019-01-19T09:01:34.038Z,95254.00
2019-01-19T09:04:04.022Z,95239.00
2019-01-19T09:06:34.061Z,95247.00
2019-01-19T09:09:05.612Z,95246.00
2019-01-19T09:11:35.774Z,95249.00
2019-01-19T09:14:07.162Z,95253.00
2019-01-19T09:16:39.928Z,95248.00
2019-01-19T09:19:09.065Z,95257.00
2019-01-19T09:21:39.052Z,95247.00
2019-01-19T09:24:13.706Z,95260.00
2019-01-19T09:26:43.655Z,95260.00
2019-01-19T09:29:13.736Z,95250.00
2019-01-19T09:31:44.823Z,95254.00
2019-01-19T09:34:15.007Z,95247.00
2019-01-19T09:36:45.237Z,95243.00
2019-01-19T09:39:15.243Z,95253.00
2019-01-19T09:41:45.332Z,95244.00
2019-01-19T09:44:15.439Z,95238.00
2019-01-19T09:46:45.561Z,95246.00
2019-01-19T09:49:15.657Z,95252.00
2019-01-19T09:51:45.642Z,95245.00
2019-01-19T09:54:15.618Z,95234.00
2019-01-19T09:56:46.414Z,95241.00
2019-01-19T09:59:16.445Z,95247.00
2019-01-19T10:01:46.665Z,95232.00
2019-01-19T10:04:16.616Z,95225.00
2019-01-19T10:06:48.154Z,95238.00
2019-01-19T10:09:18.471Z,95223.00
2019-01-19T10:11:48.483Z,95230.00
2019-01-19T10:14:18.621Z,95222.00
2019-01-19T10:16:48.619Z,95218.00
2019-01-19T10:19:18.660Z,95218.00
2019-01-19T10:21:49.677Z,95220.00
2019-01-19T10:24:19.729Z,95207.00
2019-01-19T10:26:49.646Z,95218.00
2019-01-19T10:29:20.177Z,95207.00
2019-01-19T10:31:50.508Z,95216.00
2019-01-19T10:34:20.653Z,95219.00
2019-01-19T10:36:50.570Z,95212.00
2019-01-19T10:39:20.590Z,95212.00
2019-01-19T10:41:50.756Z,95210.00
2019-01-19T10:44:20.657Z,95210.00
2019-01-19T10:46:50.804Z,95205.00
2019-01-19T10:49:21.053Z,95191.00
2019-01-19T10:51:51.220Z,95191.00
2019-01-19T10:54:21.207Z,95194.00
2019-01-19T10:56:51.105Z,95179.00
2019-01-19T10:59:21.460Z,95204.00
2019-01-19T11:01:51.620Z,95189.00
2019-01-19T11:04:21.937Z,95188.00
2019-01-19T11:06:51.910Z,95184.00
2019-01-19T11:09:22.177Z,95176.00
2019-01-19T11:11:52.161Z,95169.00
2019-01-19T11:14:22.135Z,95165.00
2019-01-19T11:16:52.341Z,95170.00
2019-01-19T11:19:26.089Z,95162.00
2019-01-19T11:21:56.370Z,95158.00
2019-01-19T11:24:26.309Z,95152.00
2019-01-19T11:26:56.252Z,95156.00
2019-01-19T11:29:26.756Z,95155.00
2019-01-19T11:31:56.991Z,95159.00
2019-01-19T11:34:26.858Z,95163.00
2019-01-19T11:36:56.752Z,95144.00
2019-01-19T11:39:29.450Z,95148.00
2019-01-19T11:41:59.739Z,95143.00
2019-01-19T11:44:29.789Z,95137.00
2019-01-19T11:46:59.759Z,95135.00
2019-01-19T11:49:32.486Z,95135.00
2019-01-19T11:52:03.573Z,95133.00
2019-01-19T11:54:34.032Z,95120.00
2019-01-19T11:57:04.179Z,95130.00
2019-01-19T11:59:34.313Z,95137.00
2019-01-19T12:02:04.688Z,95131.00
2019-01-19T12:04:37.138Z,95128.00
2019-01-19T12:07:07.452Z,95117.00
2019-01-19T12:09:37.629Z,95109.00
2019-01-19T12:12:08.738Z,95117.00
2019-01-19T12:14:39.106Z,95118.00
2019-01-19T12:17:09.537Z,95110.00
2019-01-19T12:19:40.995Z,95106.00
2019-01-19T12:22:13.098Z,95090.00
2019-01-19T12:24:43.302Z,95094.00
2019-01-19T12:27:13.267Z,95098.00
2019-01-19T12:29:43.178Z,95089.00
2019-01-19T12:32:13.486Z,95090.00
2019-01-19T12:34:45.520Z,95091.00
2019-01-19T12:37:18.248Z,95071.00
2019-01-19T12:39:48.334Z,95086.00
2019-01-19T12:42:18.614Z,95090.00
2019-01-19T12:44:48.629Z,95084.00
2019-01-19T12:47:19.034Z,95083.00
2019-01-19T12:49:52.097Z,95078.00
2019-01-19T12:52:23.003Z,95077.00
2019-01-19T12:54:52.910Z,95083.00
2019-01-19T12:57:26.214Z,95077.00
2019-01-19T12:59:56.092Z,95072.00
2019-01-19T13:02:29.276Z,95072.00
2019-01-19T13:04:59.630Z,95072.00
2019-01-19T13:07:29.857Z,95068.00
2019-01-19T13:10:14.237Z,95061.00
2019-01-19T13:13:22.833Z,95050.00
2019-01-19T13:16:56.746Z,95062.00
2019-01-19T13:19:54.608Z,95060.00
2019-01-19T13:23:27.429Z,95055.00
2019-01-19T13:26:30.096Z,95058.00
2019-01-19T13:29:54.270Z,95052.00
2019-01-19T13:32:47.644Z,95055.00
2019-01-19T13:36:29.278Z,95051.00
2019-01-19T13:40:01.027Z,95057.00
2019-01-19T13:43:44.625Z,95051.00
2019-01-19T13:46:43.603Z,95051.00
2019-01-19T13:50:08.055Z,95061.00
2019-01-19T13:53:42.230Z,95052.00
2019-01-19T13:57:28.677Z,95037.00
2019-01-19T14:01:01.307Z,95043.00
2019-01-19T14:03:51.694Z,95042.00
2019-01-19T14:07:25.433Z,95033.00
2019-01-19T14:10:25.063Z,95035.00
2019-01-19T14:13:45.149Z,95028.00
2019-01-19T14:16:43.676Z,95037.00
2019-01-19T14:19:40.593Z,95022.00
2019-01-19T14:23:00.692Z,95024.00
2019-01-19T14:26:07.125Z,95020.00
2019-01-19T14:29:22.112Z,95022.00
2019-01-19T14:32:48.154Z,95017.00
2019-01-19T14:36:46.229Z,95019.00
2019-01-19T14:40:18.768Z,95017.00
2019-01-19T14:43:33.370Z,95013.00
2019-01-19T14:46:50.282Z,95027.00
2019-01-19T14:50:31.984Z,95014.00
2019-01-19T14:53:41.354Z,95016.00
2019-01-19T14:57:09.591Z,95017.00
2019-01-19T15:00:44.156Z,95027.00
2019-01-19T15:04:06.692Z,95012.00
2019-01-19T15:07:44.172Z,95011.00
2019-01-19T15:10:35.555Z,95011.00
2019-01-19T15:13:48.273Z,95016.00
2019-01-19T15:17:33.648Z,95023.00
2019-01-19T15:20:56.767Z,95011.00
2019-01-19T15:24:13.562Z,95012.00
2019-01-19T15:27:43.721Z,95007.00
2019-01-19T15:31:28.102Z,95022.00
2019-01-19T15:35:11.111Z,95002.00
2019-01-19T15:38:29.274Z,95007.00
2019-01-19T15:41:49.990Z,95001.00
2019-01-19T15:45:09.983Z,94990.00
2019-01-19T15:48:39.266Z,94999.00
2019-01-19T15:52:11.020Z,94996.00
2019-01-19T15:55:36.991Z,94992.00
2019-01-19T15:58:49.642Z,95007.00
2019-01-19T16:02:07.161Z,94990.00
2019-01-19T16:05:15.686Z,94982.00
2019-01-19T16:08:39.439Z,94990.00
2019-01-19T16:12:12.891Z,95008.00
2019-01-19T16:15:30.231Z,94998.00
2019-01-19T16:19:00.415Z,94996.00
2019-01-19T16:22:24.816Z,95000.00
2019-01-19T16:26:00.166Z,94983.00
2019-01-19T16:29:38.097Z,94992.00
2019-01-19T16:32:49.213Z,95008.00
2019-01-19T16:36:05.278Z,94994.00
2019-01-19T16:39:17.811Z,95004.00
2019-01-19T16:42:46.101Z,94998.00
2019-01-19T16:45:49.122Z,94998.00
2019-01-19T16:49:03.366Z,94989.00
2019-01-19T16:52:08.758Z,94999.00
2019-01-19T16:55:14.593Z,94990.00
2019-01-19T16:58:39.059Z,94990.00
2019-01-19T17:02:13.817Z,94993.00
2019-01-19T17:05:36.373Z,94996.00
2019-01-19T17:08:55.236Z,94982.00
2019-01-19T17:12:35.201Z,94998.00
2019-01-19T17:16:06.624Z,94989.00
2019-01-19T17:19:27.291Z,94994.00
2019-01-19T17:22:39.254Z,94988.00
2019-01-19T17:25:57.811Z,94993.00
2019-01-19T17:29:28.424Z,94990.00
2019-01-19T17:32:28.574Z,94984.00
2019-01-19T17:35:34.039Z,94991.00
2019-01-19T17:39:11.639Z,95000.00
2019-01-19T17:42:55.677Z,94994.00
2019-01-19T17:46:18.785Z,94993.00
2019-01-19T17:49:50.097Z,94995.00
2019-01-19T17:53:19.588Z,94985.00
2019-01-19T17:56:48.142Z,94990.00
2019-01-19T18:00:08.155Z,94981.00
2019-01-19T18:03:39.648Z,94988.00
2019-01-19T18:06:50.089Z,94985.00
2019-01-19T18:10:30.137Z,94990.00
2019-01-19T18:13:53.898Z,94981.00
2019-01-19T18:17:37.075Z,94972.00
2019-01-19T18:20:43.469Z,94990.00
2019-01-19T18:24:27.873Z,94976.00
2019-01-19T18:27:23.843Z,94978.00
2019-01-19T18:31:10.958Z,94974.00
2019-01-19T18:34:16.453Z,94957.00
2019-01-19T18:37:45.769Z,94956.00
2019-01-19T18:40:53.505Z,94959.00
2019-01-19T18:44:11.902Z,94957.00
2019-01-19T18:47:15.479Z,94957.00
2019-01-19T18:50:47.438Z,94953.00
2019-01-19T18:54:07.512Z,94970.00
2019-01-19T18:57:35.486Z,94966.00
2019-01-19T19:00:33.501Z,94962.00
2019-01-19T19:04:15.579Z,94972.00
2019-01-19T19:07:41.477Z,94969.00
2019-01-19T19:11:16.038Z,94950.00
2019-01-19T19:14:35.836Z,94963.00
2019-01-19T19:18:05.571Z,94959.00
2019-01-19T19:21:57.219Z,94972.00
2019-01-19T19:25:24.365Z,94961.00
2019-01-19T19:29:19.840Z,94967.00
2019-01-19T19:32:39.306Z,94964.00
2019-01-19T19:35:59.461Z,94960.00
2019-01-19T19:39:14.059Z,94953.00
2019-01-19T19:42:29.960Z,94939.00
2019-01-19T19:45:50.443Z,94947.00
2019-01-19T19:49:23.399Z,94938.00
2019-01-19T19:52:11.544Z,94940.00
2019-01-19T19:54:51.371Z,94940.00
2019-01-19T19:57:27.044Z,94925.00
2019-01-19T19:59:56.989Z,94940.00
2019-01-19T20:02:27.248Z,94951.00
2019-01-19T20:04:57.421Z,94951.00
2019-01-19T20:07:28.431Z,94964.00
2019-01-19T20:09:59.924Z,94958.00
2019-01-19T20:12:30.838Z,94947.00
2019-01-19T20:15:01.283Z,94936.00
2019-01-19T20:17:31.292Z,94951.00
2019-01-19T20:20:01.431Z,94950.00
2019-01-19T20:22:33.504Z,94940.00
2019-01-19T20:25:03.597Z,94950.00
2019-01-19T20:27:33.855Z,94965.00
2019-01-19T20:30:04.974Z,94942.00
2019-01-19T20:32:34.944Z,94952.00
2019-01-19T20:35:05.443Z,94956.00
2019-01-19T20:37:35.439Z,94946.00
2019-01-19T20:40:08.277Z,94955.00
2019-01-19T20:42:45.132Z,94949.00
2019-01-19T20:45:18.828Z,94941.00
2019-01-19T20:47:49.360Z,94959.00
2019-01-19T20:50:22.941Z,94935.00
2019-01-19T20:52:55.904Z,94945.00
2019-01-19T20:55:26.854Z,94940.00
2019-01-19T20:58:01.176Z,94955.00
2019-01-19T21:00:31.403Z,94956.00
2019-01-19T21:03:05.933Z,94953.00
2019-01-19T21:05:36.364Z,94946.00
2019-01-19T21:08:08.216Z,94945.00
2019-01-19T21:10:38.256Z,94951.00
2019-01-19T21:13:08.736Z,94953.00
2019-01-19T21:15:39.065Z,94953.00
2019-01-19T21:18:09.125Z,94951.00
2019-01-19T21:20:39.103Z,94942.00
2019-01-19T21:23:09.002Z,94951.00
2019-01-19T21:25:38.961Z,94956.00
2019-01-19T21:28:08.878Z,94951.00
2019-01-19T21:30:39.718Z,94941.00
2019-01-19T21:33:10.972Z,94960.00
2019-01-19T21:35:41.156Z,94945.00
2019-01-19T21:38:11.143Z,94954.00
2019-01-19T21:40:41.143Z,94952.00
2019-01-19T21:43:11.051Z,94956.00
2019-01-19T21:45:44.385Z,94940.00
2019-01-19T21:48:18.575Z,94951.00
2019-01-19T21:50:48.694Z,94957.00
2019-01-19T21:53:19.028Z,94934.00
2019-01-19T21:55:49.108Z,94948.00
2019-01-19T21:58:19.079Z,94947.00
2019-01-19T22:00:49.158Z,94957.00
2019-01-19T22:03:21.552Z,94936.00
2019-01-19T22:05:51.455Z,94945.00
2019-01-19T22:08:21.588Z,94954.00
2019-01-19T22:10:51.678Z,94942.00
2019-01-19T22:13:22.787Z,94942.00
2019-01-19T22:15:52.755Z,94948.00
2019-01-19T22:18:22.695Z,94952.00
2019-01-19T22:20:53.240Z,94949.00
2019-01-19T22:23:23.348Z,94945.00
2019-01-19T22:25:53.387Z,94937.00
2019-01-19T22:28:23.715Z,94959.00
2019-01-19T22:30:53.814Z,94953.00
2019-01-19T22:33:24.531Z,94955.00
2019-01-19T22:35:54.421Z,94957.00
2019-01-19T22:38:25.575Z,94948.00
2019-01-19T22:40:55.709Z,94951.00
2019-01-19T22:43:32.644Z,94945.00
2019-01-19T22:46:02.860Z,94948.00
2019-01-19T22:48:33.015Z,94951.00
2019-01-19T22:51:03.125Z,94952.00
2019-01-19T22:53:33.306Z,94949.00
2019-01-19T22:56:04.524Z,94961.00
2019-01-19T22:58:34.547Z,94951.00
2019-01-19T23:01:43.294Z,94954.00
2019-01-19T23:04:13.398Z,94954.00
2019-01-19T23:06:45.218Z,94957.00
2019-01-19T23:09:20.141Z,94946.00
2019-01-19T23:11:53.044Z,94942.00
2019-01-19T23:14:26.484Z,94941.00
2019-01-19T23:16:56.686Z,94939.00
2019-01-19T23:19:27.041Z,94933.00
2019-01-19T23:21:57.265Z,94940.00
2019-01-19T23:24:28.308Z,94923.00
2019-01-19T23:27:16.889Z,94925.00
2019-01-19T23:29:47.887Z,94917.00
2019-01-19T23:32:19.828Z,94917.00
2019-01-19T23:34:50.259Z,94917.00
2019-01-19T23:37:23.974Z,94929.00
2019-01-19T23:39:54.074Z,94913.00
2019-01-19T23:42:25.281Z,94923.00
2019-01-19T23:44:55.373Z,94921.00
2019-01-19T23:47:25.281Z,94926.00
2019-01-19T23:49:55.182Z,94916.00
2019-01-19T23:52:25.105Z,94904.00
2019-01-19T23:54:55.224Z,94924.00
2019-01-19T23:57:25.330Z,94914.00
2019-01-19T23:59:55.567Z,94899.00
